createdAt,value
2023-01-11T00:00:55.185Z,34.13
2023-01-11T00:03:22.104Z,34.05
2023-01-11T00:05:49.259Z,34.95
2023-01-11T00:08:16.246Z,34.78
2023-01-11T00:10:43.551Z,34.10
2023-01-11T00:13:11.585Z,34.67
2023-01-11T00:15:40.327Z,38.58
2023-01-11T00:18:07.756Z,38.75
2023-01-11T00:20:35.276Z,37.75
2023-01-11T00:23:02.381Z,39.83
2023-01-11T00:25:29.618Z,40.92
2023-01-11T00:27:56.680Z,37.60
2023-01-11T00:30:24.472Z,36.70
2023-01-11T00:32:57.425Z,37.00
2023-01-11T00:35:26.817Z,40.03
2023-01-11T00:37:54.670Z,37.80
2023-01-11T00:40:24.026Z,35.70
2023-01-11T00:43:09.802Z,38.17
2023-01-11T00:45:55.930Z,37.95
2023-01-11T00:48:23.116Z,36.40
2023-01-11T00:50:57.252Z,38.72
2023-01-11T00:53:24.410Z,32.20
2023-01-11T00:55:51.722Z,33.92
2023-01-11T00:58:18.968Z,36.35
2023-01-11T01:00:46.316Z,32.92
2023-01-11T01:03:13.311Z,29.58
2023-01-11T01:05:40.636Z,28.90
2023-01-11T01:08:07.775Z,28.00
2023-01-11T01:10:35.059Z,27.75
2023-01-11T01:13:21.539Z,28.92
2023-01-11T01:15:48.782Z,29.52
2023-01-11T01:18:15.930Z,32.00
2023-01-11T01:20:43.195Z,32.05
2023-01-11T01:23:10.127Z,28.35
2023-01-11T01:25:37.998Z,31.02
2023-01-11T01:28:05.132Z,30.45
2023-01-11T01:30:33.618Z,33.45
2023-01-11T01:33:00.635Z,33.05
2023-01-11T01:35:28.361Z,35.90
2023-01-11T01:37:55.315Z,32.92
2023-01-11T01:40:22.744Z,35.33
2023-01-11T01:42:54.537Z,37.90
2023-01-11T01:45:26.177Z,36.67
2023-01-11T01:48:06.158Z,37.08
2023-01-11T01:50:40.457Z,36.20
2023-01-11T01:53:17.043Z,37.30
2023-01-11T01:55:51.951Z,38.17
2023-01-11T01:58:26.638Z,34.35
2023-01-11T02:00:54.194Z,34.65
2023-01-11T02:03:26.828Z,30.83
2023-01-11T02:05:54.682Z,29.52
2023-01-11T02:08:38.003Z,30.30
2023-01-11T02:11:27.652Z,29.58
2023-01-11T02:13:58.634Z,28.20
2023-01-11T02:16:26.759Z,23.75
2023-01-11T02:18:55.631Z,24.88
2023-01-11T02:21:39.627Z,28.40
2023-01-11T02:24:49.685Z,27.67
2023-01-11T02:27:54.843Z,26.30
2023-01-11T02:30:35.044Z,27.23
2023-01-11T02:33:49.336Z,25.05
2023-01-11T02:37:04.673Z,25.73
2023-01-11T02:40:03.367Z,24.30
2023-01-11T02:42:58.394Z,22.85
2023-01-11T02:45:47.299Z,26.85
2023-01-11T02:48:36.711Z,24.85
2023-01-11T02:51:22.542Z,27.60
2023-01-11T02:54:04.332Z,22.67
2023-01-11T02:56:40.448Z,21.02
2023-01-11T02:59:13.225Z,24.65
2023-01-11T03:01:53.221Z,21.65
2023-01-11T03:04:35.827Z,19.60
2023-01-11T03:07:40.158Z,23.30
2023-01-11T03:10:55.946Z,21.17
2023-01-11T03:14:04.595Z,19.85
2023-01-11T03:16:51.762Z,20.60
2023-01-11T03:19:41.650Z,21.85
2023-01-11T03:22:23.291Z,20.23
2023-01-11T03:25:12.948Z,21.10
2023-01-11T03:32:45.559Z,16.45
2023-01-11T03:35:38.322Z,18.92
2023-01-11T03:38:25.082Z,19.73
2023-01-11T03:41:06.632Z,16.35
2023-01-11T03:43:40.322Z,20.15
2023-01-11T03:46:16.892Z,18.38
2023-01-11T03:48:59.233Z,20.40
2023-01-11T03:51:31.576Z,19.63
2023-01-11T03:54:14.133Z,21.13
2023-01-11T03:56:56.414Z,17.27
2023-01-11T03:59:24.186Z,19.58
2023-01-11T04:01:55.146Z,20.55
2023-01-11T04:04:23.381Z,19.25
2023-01-11T04:06:50.807Z,20.60
2023-01-11T04:09:17.894Z,17.20
2023-01-11T04:11:45.726Z,17.95
2023-01-11T04:14:12.747Z,21.25
2023-01-11T04:16:40.055Z,17.98
2023-01-11T04:19:07.071Z,20.38
2023-01-11T04:21:34.219Z,19.90
2023-01-11T04:24:01.323Z,17.52
2023-01-11T04:26:28.528Z,22.05
2023-01-11T04:28:56.029Z,19.33
2023-01-11T04:31:23.511Z,19.63
2023-01-11T04:33:50.504Z,19.45
2023-01-11T04:36:18.067Z,18.23
2023-01-11T04:38:45.124Z,19.15
2023-01-11T04:41:30.901Z,19.80
2023-01-11T04:43:57.957Z,20.02
2023-01-11T04:46:25.471Z,19.83
2023-01-11T04:48:52.906Z,23.40
2023-01-11T04:51:20.435Z,20.90
2023-01-11T04:53:51.783Z,23.20
2023-01-11T04:56:19.583Z,20.40
2023-01-11T04:58:46.789Z,21.48
2023-01-11T05:01:19.377Z,17.58
2023-01-11T05:03:47.308Z,18.75
2023-01-11T05:06:15.629Z,19.73
2023-01-11T05:08:47.599Z,19.70
2023-01-11T05:11:17.430Z,16.90
2023-01-11T05:13:45.150Z,17.75
2023-01-11T05:16:21.137Z,15.82
2023-01-11T05:18:54.882Z,18.40
2023-01-11T05:21:26.772Z,16.55
2023-01-11T05:23:54.894Z,18.90
2023-01-11T05:26:27.220Z,17.42
2023-01-11T05:28:57.464Z,17.20
2023-01-11T05:31:25.517Z,17.20
2023-01-11T05:33:53.333Z,17.48
2023-01-11T05:36:23.058Z,19.27
2023-01-11T05:38:52.635Z,18.02
2023-01-11T05:41:23.391Z,18.30
2023-01-11T05:44:12.079Z,18.92
2023-01-11T05:46:42.729Z,18.85
2023-01-11T05:49:12.156Z,21.00
2023-01-11T05:51:41.036Z,17.90
2023-01-11T05:54:12.871Z,21.58
2023-01-11T05:56:42.505Z,18.88
2023-01-11T05:59:09.834Z,18.77
2023-01-11T06:01:37.936Z,18.25
2023-01-11T06:04:05.184Z,19.42
2023-01-11T06:06:33.552Z,18.70
2023-01-11T06:09:00.779Z,19.63
2023-01-11T06:11:28.425Z,19.98
2023-01-11T06:13:55.514Z,18.35
2023-01-11T06:16:23.809Z,20.13
2023-01-11T06:18:53.099Z,17.92
2023-01-11T06:21:21.645Z,20.02
2023-01-11T06:23:53.188Z,22.77
2023-01-11T06:26:23.155Z,21.02
2023-01-11T06:28:51.691Z,19.63
2023-01-11T06:31:19.719Z,19.48
2023-01-11T06:33:47.550Z,22.20
2023-01-11T06:36:16.180Z,19.83
2023-01-11T06:38:44.339Z,20.58
2023-01-11T06:41:13.268Z,20.40
2023-01-11T06:43:42.058Z,20.55
2023-01-11T06:46:15.577Z,23.80
2023-01-11T06:48:43.717Z,21.88
2023-01-11T06:51:12.088Z,22.25
2023-01-11T06:53:41.158Z,21.77
2023-01-11T06:56:13.132Z,24.48
2023-01-11T06:58:40.583Z,23.27
2023-01-11T07:01:08.232Z,19.85
2023-01-11T07:03:35.366Z,22.67
2023-01-11T07:06:04.299Z,23.95
2023-01-11T07:08:31.342Z,28.23
2023-01-11T07:10:58.643Z,32.05
2023-01-11T07:13:25.593Z,23.95
2023-01-11T07:15:57.246Z,24.35
2023-01-11T07:18:24.273Z,30.77
2023-01-11T07:20:52.058Z,28.20
2023-01-11T07:23:19.356Z,25.17
2023-01-11T07:25:49.870Z,23.77
2023-01-11T07:28:17.184Z,26.15
2023-01-11T07:30:57.346Z,23.52
2023-01-11T07:33:26.442Z,21.17
2023-01-11T07:35:54.535Z,20.33
2023-01-11T07:38:22.601Z,21.60
2023-01-11T07:40:49.898Z,19.73
2023-01-11T07:43:23.679Z,19.42
2023-01-11T07:45:52.876Z,20.90
2023-01-11T07:48:26.300Z,21.67
2023-01-11T07:50:55.212Z,22.85
2023-01-11T07:53:25.504Z,22.27
2023-01-11T07:55:55.820Z,27.67
2023-01-11T07:58:23.220Z,31.38
2023-01-11T08:00:50.663Z,36.08
2023-01-11T08:03:18.034Z,27.40
2023-01-11T08:05:51.276Z,30.42
2023-01-11T08:08:18.560Z,31.05
2023-01-11T08:10:45.815Z,30.85
2023-01-11T08:13:33.224Z,30.48
2023-01-11T08:16:02.499Z,33.67
2023-01-11T08:18:29.444Z,39.45
2023-01-11T08:20:56.701Z,42.58
2023-01-11T08:23:23.864Z,48.42
2023-01-11T08:25:57.220Z,33.95
2023-01-11T08:28:24.179Z,28.80
2023-01-11T08:30:51.470Z,31.88
2023-01-11T08:33:19.067Z,31.60
2023-01-11T08:35:46.252Z,34.05
2023-01-11T08:38:13.358Z,38.75
2023-01-11T08:40:40.565Z,37.05
2023-01-11T08:43:07.504Z,39.35
2023-01-11T08:45:34.681Z,37.58
2023-01-11T08:48:02.042Z,38.35
2023-01-11T08:50:29.373Z,40.95
2023-01-11T08:52:56.392Z,35.40
2023-01-11T08:55:23.631Z,36.97
2023-01-11T08:57:50.781Z,36.15
2023-01-11T09:00:19.153Z,36.40
2023-01-11T09:02:46.221Z,34.75
2023-01-11T09:05:13.618Z,37.00
2023-01-11T09:07:40.720Z,37.15
2023-01-11T09:10:08.971Z,51.92
2023-01-11T09:12:36.018Z,38.05
2023-01-11T09:15:05.828Z,33.70
2023-01-11T09:17:34.137Z,36.42
2023-01-11T09:20:01.383Z,37.33
2023-01-11T09:22:28.499Z,37.92
2023-01-11T09:24:58.833Z,44.33
2023-01-11T09:27:26.386Z,31.98
2023-01-11T09:29:53.630Z,30.63
2023-01-11T09:32:20.701Z,37.67
2023-01-11T09:34:49.617Z,34.58
2023-01-11T09:37:17.154Z,30.60
2023-01-11T09:39:44.719Z,30.52
2023-01-11T09:42:36.531Z,26.55
2023-01-11T09:45:20.256Z,23.88
2023-01-11T09:48:03.605Z,19.50
2023-01-11T09:50:41.829Z,17.52
2023-01-11T09:53:28.026Z,15.77
2023-01-11T09:55:58.508Z,19.42
2023-01-11T09:58:54.404Z,18.45
2023-01-11T10:01:38.722Z,15.63
2023-01-11T10:05:18.524Z,18.05
2023-01-11T10:18:27.917Z,14.65
2023-01-11T10:18:39.107Z,15.10
2023-01-11T10:20:55.083Z,21.45
2023-01-11T10:23:33.192Z,18.70
2023-01-11T10:26:07.109Z,20.15
2023-01-11T10:28:43.205Z,18.08
2023-01-11T10:31:45.242Z,18.85
2023-01-11T10:34:38.849Z,19.80
2023-01-11T10:37:46.728Z,16.67
2023-01-11T10:40:39.104Z,13.32
2023-01-11T10:43:20.174Z,12.95
2023-01-11T10:45:57.955Z,14.88
2023-01-11T10:48:38.613Z,15.23
2023-01-11T10:51:49.080Z,16.92
2023-01-11T10:54:24.451Z,14.43
2023-01-11T10:57:35.563Z,16.63
2023-01-11T11:00:23.778Z,15.18
2023-01-11T11:02:56.638Z,20.73
2023-01-11T11:05:55.624Z,14.23
2023-01-11T11:08:41.825Z,15.57
2023-01-11T11:11:36.853Z,14.25
2023-01-11T11:14:35.188Z,13.35
2023-01-11T11:17:36.743Z,14.05
2023-01-11T11:20:22.446Z,12.13
2023-01-11T11:22:56.232Z,11.30
2023-01-11T11:25:32.512Z,10.15
2023-01-11T11:28:25.728Z,12.82
2023-01-11T11:33:46.319Z,12.80
2023-01-11T11:36:14.776Z,12.82
2023-01-11T11:39:18.854Z,10.63
2023-01-11T11:41:54.420Z,10.05
2023-01-11T11:44:26.524Z,8.48
2023-01-11T11:47:14.917Z,8.70
2023-01-11T11:49:43.148Z,8.77
2023-01-11T11:52:17.518Z,7.35
2023-01-11T11:54:59.237Z,10.20
2023-01-11T11:57:41.697Z,7.57
2023-01-11T12:00:34.904Z,9.02
2023-01-11T12:03:32.162Z,9.55
2023-01-11T12:06:03.798Z,6.55
2023-01-11T12:08:35.002Z,7.30
2023-01-11T12:11:08.172Z,6.57
2023-01-11T12:13:38.943Z,7.90
2023-01-11T12:16:22.854Z,8.48
2023-01-11T12:18:49.912Z,7.88
2023-01-11T12:21:21.816Z,9.40
2023-01-11T12:24:19.416Z,9.70
2023-01-11T12:27:11.942Z,7.43
2023-01-11T12:30:05.085Z,8.82
2023-01-11T12:32:53.912Z,9.65
2023-01-11T12:35:28.020Z,7.30
2023-01-11T12:38:43.576Z,6.60
2023-01-11T12:41:48.236Z,6.78
2023-01-11T12:45:01.675Z,7.28
2023-01-11T12:47:58.921Z,6.60
2023-01-11T12:50:56.766Z,7.78
2023-01-11T12:53:37.549Z,6.85
2023-01-11T12:56:26.051Z,5.85
2023-01-11T12:59:06.867Z,7.05
2023-01-11T13:02:03.044Z,8.13
2023-01-11T13:04:56.624Z,6.60
2023-01-11T13:07:43.274Z,7.75
2023-01-11T13:10:29.851Z,7.25
2023-01-11T13:13:21.852Z,6.53
2023-01-11T13:16:09.526Z,6.55
2023-01-11T13:19:15.656Z,6.38
2023-01-11T13:21:53.311Z,5.43
2023-01-11T13:24:31.214Z,6.22
2023-01-11T13:27:14.014Z,6.10
2023-01-11T13:29:47.195Z,6.43
2023-01-11T13:32:23.395Z,6.50
2023-01-11T13:35:27.581Z,6.45
2023-01-11T13:38:08.326Z,6.65
2023-01-11T13:40:49.718Z,7.28
2023-01-11T13:43:46.431Z,8.32
2023-01-11T13:46:40.355Z,5.72
2023-01-11T13:49:44.699Z,6.70
2023-01-11T13:52:24.802Z,9.15
2023-01-11T13:55:26.433Z,6.88
2023-01-11T13:58:07.258Z,7.57
2023-01-11T14:01:10.709Z,6.05
2023-01-11T14:03:56.633Z,6.00
2023-01-11T14:06:31.730Z,7.05
2023-01-11T14:09:27.960Z,6.75
2023-01-11T14:12:35.688Z,6.53
2023-01-11T14:15:28.677Z,7.38
2023-01-11T14:18:09.242Z,6.65
2023-01-11T14:21:13.099Z,5.93
2023-01-11T14:23:51.404Z,7.45
2023-01-11T14:26:43.636Z,6.70
2023-01-11T14:30:04.528Z,6.97
2023-01-11T14:33:01.946Z,8.30
2023-01-11T14:36:15.355Z,5.68
2023-01-11T14:39:20.784Z,7.05
2023-01-11T14:42:45.633Z,7.40
2023-01-11T14:45:52.019Z,6.35
2023-01-11T14:48:48.280Z,8.38
2023-01-11T14:51:32.556Z,8.20
2023-01-11T14:54:23.203Z,8.13
2023-01-11T14:56:57.735Z,6.47
2023-01-11T14:59:31.259Z,6.07
2023-01-11T15:02:04.512Z,7.32
2023-01-11T15:04:59.195Z,7.38
2023-01-11T15:07:29.633Z,7.18
2023-01-11T15:09:59.444Z,8.07
2023-01-11T15:12:39.324Z,5.85
2023-01-11T15:15:21.113Z,8.82
2023-01-11T15:18:15.835Z,8.93
2023-01-11T15:21:03.609Z,9.57
2023-01-11T15:23:48.426Z,8.30
2023-01-11T15:26:19.196Z,9.25
2023-01-11T15:29:00.188Z,7.40
2023-01-11T15:32:01.364Z,9.55
2023-01-11T15:34:31.722Z,8.32
2023-01-11T15:37:02.297Z,7.97
2023-01-11T15:39:58.886Z,9.15
2023-01-11T15:42:59.023Z,9.88
2023-01-11T15:46:06.639Z,13.27
2023-01-11T15:48:57.551Z,13.00
2023-01-11T15:51:45.950Z,13.77
2023-01-11T15:54:28.005Z,27.85
2023-01-11T15:57:22.668Z,38.80
2023-01-11T16:00:34.083Z,37.13
2023-01-11T16:03:30.054Z,41.15
2023-01-11T16:06:27.900Z,47.22
2023-01-11T16:09:07.229Z,49.10
2023-01-11T16:12:00.513Z,50.22
2023-01-11T16:14:57.575Z,51.65
2023-01-11T16:17:26.363Z,44.30
2023-01-11T16:19:56.621Z,43.97
2023-01-11T16:22:28.135Z,42.97
2023-01-11T16:25:01.788Z,38.75
2023-01-11T16:27:34.838Z,38.45
2023-01-11T16:30:02.874Z,39.00
2023-01-11T16:32:34.583Z,39.13
2023-01-11T16:35:17.304Z,32.53
2023-01-11T16:37:50.207Z,32.03
2023-01-11T16:40:42.960Z,32.38
2023-01-11T16:43:24.388Z,31.20
2023-01-11T16:45:54.500Z,29.08
2023-01-11T16:48:28.450Z,29.83
2023-01-11T16:51:16.572Z,28.15
2023-01-11T16:53:55.405Z,27.63
2023-01-11T16:56:24.473Z,25.38
2023-01-11T16:59:27.168Z,27.42
2023-01-11T17:02:04.450Z,24.73
2023-01-11T17:04:38.222Z,22.40
2023-01-11T17:07:20.209Z,23.85
2023-01-11T17:09:47.462Z,25.33
2023-01-11T17:12:24.134Z,26.52
2023-01-11T17:15:09.363Z,27.88
2023-01-11T17:17:37.953Z,28.63
2023-01-11T17:20:20.692Z,27.85
2023-01-11T17:25:37.270Z,24.65
2023-01-11T17:28:19.684Z,26.02
2023-01-11T17:30:51.231Z,25.85
2023-01-11T17:33:29.246Z,19.53
2023-01-11T17:35:57.397Z,26.55
2023-01-11T17:38:27.268Z,26.02
2023-01-11T17:40:58.572Z,29.95
2023-01-11T17:43:47.673Z,30.13
2023-01-11T17:46:20.459Z,28.65
2023-01-11T17:48:59.786Z,32.72
2023-01-11T17:51:31.398Z,30.52
2023-01-11T17:53:58.851Z,31.55
2023-01-11T17:56:54.454Z,37.60
2023-01-11T17:59:24.297Z,32.92
2023-01-11T18:01:57.620Z,32.85
2023-01-11T18:04:27.258Z,32.38
2023-01-11T18:07:04.622Z,32.38
2023-01-11T18:09:36.212Z,30.08
2023-01-11T18:12:25.927Z,33.05
2023-01-11T18:15:03.604Z,35.88
2023-01-11T18:17:42.014Z,35.55
2023-01-11T18:20:15.244Z,37.03
2023-01-11T18:22:59.642Z,36.50
2023-01-11T18:25:30.841Z,32.40
2023-01-11T18:28:30.032Z,36.08
2023-01-11T18:31:01.701Z,36.85
2023-01-11T18:33:33.321Z,33.87
2023-01-11T18:36:04.021Z,33.13
2023-01-11T18:38:34.787Z,33.33
2023-01-11T18:41:28.100Z,34.13
2023-01-11T18:46:23.083Z,39.35
2023-01-11T18:48:50.267Z,46.95
2023-01-11T18:51:33.635Z,40.47
2023-01-11T18:54:00.670Z,38.92
2023-01-11T18:56:28.461Z,39.22
2023-01-11T18:58:55.438Z,38.85
2023-01-11T19:01:22.729Z,44.03
2023-01-11T19:03:50.704Z,46.17
2023-01-11T19:06:20.939Z,55.38
2023-01-11T19:08:48.034Z,55.38
2023-01-11T19:11:16.729Z,53.22
2023-01-11T19:13:46.617Z,64.65
2023-01-11T19:16:15.070Z,65.68
2023-01-11T19:18:42.031Z,62.95
2023-01-11T19:21:13.166Z,70.22
2023-01-11T19:23:41.283Z,71.93
2023-01-11T19:26:08.519Z,76.55
2023-01-11T19:28:37.027Z,79.60
2023-01-11T19:31:11.296Z,79.15
2023-01-11T19:33:40.166Z,74.70
2023-01-11T19:36:09.250Z,75.43
2023-01-11T19:38:37.129Z,67.85
2023-01-11T19:41:08.108Z,60.80
2023-01-11T19:43:36.206Z,65.15
2023-01-11T19:46:03.959Z,62.35
2023-01-11T19:48:34.482Z,59.42
2023-01-11T19:51:11.502Z,59.45
2023-01-11T19:53:38.564Z,50.35
2023-01-11T19:56:08.767Z,53.55
2023-01-11T19:58:38.930Z,48.08
2023-01-11T20:01:11.954Z,47.85
2023-01-11T20:03:45.378Z,47.83
2023-01-11T20:06:12.734Z,47.75
2023-01-11T20:08:41.134Z,46.05
2023-01-11T20:11:15.145Z,49.03
2023-01-11T20:13:43.111Z,45.67
2023-01-11T20:16:13.453Z,46.65
2023-01-11T20:18:42.899Z,50.60
2023-01-11T20:21:11.482Z,49.80
2023-01-11T20:23:38.577Z,46.63
2023-01-11T20:26:07.816Z,50.00
2023-01-11T20:28:35.137Z,45.25
2023-01-11T20:31:06.813Z,44.35
2023-01-11T20:33:34.598Z,46.92
2023-01-11T20:36:18.048Z,47.00
2023-01-11T20:38:46.218Z,50.05
2023-01-11T20:41:36.138Z,46.30
2023-01-11T20:44:04.310Z,51.28
2023-01-11T20:46:32.201Z,51.33
2023-01-11T20:49:00.264Z,51.70
2023-01-11T20:51:27.526Z,49.45
2023-01-11T20:53:54.469Z,59.38
2023-01-11T20:56:21.997Z,58.15
2023-01-11T20:58:51.312Z,63.30
2023-01-11T21:01:26.802Z,62.13
2023-01-11T21:03:57.385Z,56.45
2023-01-11T21:06:24.660Z,62.40
2023-01-11T21:08:56.843Z,61.38
2023-01-11T21:11:24.844Z,58.35
2023-01-11T21:16:25.308Z,57.92
2023-01-11T21:18:57.369Z,56.55
2023-01-11T21:21:29.064Z,58.92
2023-01-11T21:23:59.152Z,51.97
2023-01-11T21:26:28.236Z,56.45
2023-01-11T21:29:02.332Z,57.47
2023-01-11T21:31:33.617Z,55.63
2023-01-11T21:34:03.330Z,55.92
2023-01-11T21:36:32.015Z,49.67
2023-01-11T21:39:00.560Z,47.95
2023-01-11T21:41:49.609Z,47.67
2023-01-11T21:44:18.992Z,51.88
2023-01-11T21:46:46.809Z,45.90
2023-01-11T21:49:14.801Z,52.45
2023-01-11T21:51:42.853Z,44.35
2023-01-11T21:54:13.165Z,42.80
2023-01-11T21:56:43.861Z,45.35
2023-01-11T21:59:11.776Z,47.63
2023-01-11T22:01:42.616Z,45.95
2023-01-11T22:04:14.276Z,47.20
2023-01-11T22:06:47.264Z,40.17
2023-01-11T22:09:14.517Z,42.38
2023-01-11T22:11:41.662Z,44.30
2023-01-11T22:14:09.342Z,45.67
2023-01-11T22:16:37.304Z,44.97
2023-01-11T22:19:07.356Z,42.05
2023-01-11T22:21:35.993Z,45.42
2023-01-11T22:24:05.025Z,45.38
2023-01-11T22:26:38.532Z,45.00
2023-01-11T22:29:12.630Z,44.17
2023-01-11T22:31:45.494Z,45.70
2023-01-11T22:34:14.281Z,43.85
2023-01-11T22:36:42.743Z,46.03
2023-01-11T22:39:11.133Z,46.40
2023-01-11T22:41:40.505Z,44.95
2023-01-11T22:44:09.218Z,49.85
2023-01-11T22:46:36.991Z,46.03
2023-01-11T22:49:06.191Z,46.17
2023-01-11T22:51:33.741Z,45.05
2023-01-11T22:54:00.706Z,52.40
2023-01-11T22:56:29.367Z,51.53
2023-01-11T22:58:58.058Z,51.78
2023-01-11T23:01:32.884Z,51.63
2023-01-11T23:04:00.749Z,54.20
2023-01-11T23:06:46.360Z,51.17
2023-01-11T23:09:16.553Z,65.50
2023-01-11T23:12:03.897Z,70.07
2023-01-11T23:14:32.757Z,66.05
2023-01-11T23:17:06.928Z,66.22
2023-01-11T23:19:40.329Z,74.22
2023-01-11T23:22:09.691Z,73.63
2023-01-11T23:24:37.784Z,75.30
2023-01-11T23:27:05.792Z,71.40
2023-01-11T23:29:33.294Z,74.80
2023-01-11T23:32:00.663Z,70.57
2023-01-11T23:34:28.082Z,66.25
2023-01-11T23:36:56.159Z,71.18
2023-01-11T23:39:23.719Z,68.70
2023-01-11T23:42:09.898Z,70.10
2023-01-11T23:44:36.947Z,65.03
2023-01-11T23:47:22.556Z,64.75
2023-01-11T23:49:52.852Z,68.25
2023-01-11T23:52:24.546Z,69.28
2023-01-11T23:54:52.092Z,66.50
2023-01-11T23:57:21.202Z,62.97
2023-01-11T23:59:48.290Z,61.03
